createdAt,value
2022-10-11T00:01:33.305Z,99.90
2022-10-11T00:04:14.699Z,99.90
2022-10-11T00:06:54.759Z,99.90
2022-10-11T00:12:35.178Z,99.90
2022-10-11T00:15:18.312Z,99.90
2022-10-11T00:18:04.505Z,99.90
2022-10-11T00:20:44.320Z,99.90
2022-10-11T00:23:25.459Z,99.90
2022-10-11T00:26:08.337Z,99.90
2022-10-11T00:28:52.768Z,99.90
2022-10-11T00:31:35.679Z,99.90
2022-10-11T00:34:17.998Z,99.90
2022-10-11T00:36:58.967Z,99.90
2022-10-11T00:39:38.926Z,99.90
2022-10-11T00:42:20.216Z,99.90
2022-10-11T00:45:37.335Z,99.90
2022-10-11T00:48:22.365Z,99.90
2022-10-11T00:51:06.571Z,99.90
2022-10-11T00:53:50.068Z,99.90
2022-10-11T00:56:35.051Z,99.90
2022-10-11T00:59:19.261Z,99.90
2022-10-11T01:01:59.877Z,99.90
2022-10-11T01:04:41.055Z,99.90
2022-10-11T01:07:22.779Z,99.90
2022-10-11T01:10:02.784Z,99.90
2022-10-11T01:12:55.688Z,99.90
2022-10-11T01:15:44.283Z,99.90
2022-10-11T01:18:29.701Z,99.90
2022-10-11T01:21:19.762Z,99.90
2022-10-11T01:24:29.426Z,99.90
2022-10-11T01:27:41.332Z,99.90
2022-10-11T01:30:27.094Z,99.90
2022-10-11T01:33:19.639Z,99.90
2022-10-11T01:36:12.017Z,99.90
2022-10-11T01:38:57.933Z,99.90
2022-10-11T01:41:42.301Z,99.90
2022-10-11T01:44:24.996Z,99.90
2022-10-11T01:47:06.264Z,99.90
2022-10-11T01:49:47.293Z,99.90
2022-10-11T01:52:31.261Z,99.90
2022-10-11T01:55:23.468Z,99.90
2022-10-11T01:58:15.095Z,99.90
2022-10-11T02:01:03.061Z,99.90
2022-10-11T02:03:48.436Z,99.90
2022-10-11T02:06:36.637Z,99.90
2022-10-11T02:09:22.862Z,99.90
2022-10-11T02:12:08.603Z,99.90
2022-10-11T02:14:51.815Z,99.90
2022-10-11T02:17:37.528Z,99.90
2022-10-11T02:20:22.343Z,99.90
2022-10-11T02:23:09.570Z,99.90
2022-10-11T02:25:50.930Z,99.90
2022-10-11T02:28:32.728Z,99.90
2022-10-11T02:31:16.188Z,99.90
2022-10-11T02:34:04.020Z,99.90
2022-10-11T02:36:53.722Z,99.90
2022-10-11T02:39:40.916Z,99.90
2022-10-11T02:42:26.926Z,99.90
2022-10-11T02:45:14.127Z,99.90
2022-10-11T02:47:54.867Z,99.90
2022-10-11T02:50:34.954Z,99.90
2022-10-11T02:53:15.901Z,99.90
2022-10-11T02:55:56.609Z,99.90
2022-10-11T02:58:37.144Z,99.90
2022-10-11T03:01:17.193Z,99.90
2022-10-11T03:04:39.003Z,99.90
2022-10-11T03:07:20.409Z,99.90
2022-10-11T03:10:00.261Z,99.90
2022-10-11T03:12:40.374Z,99.90
2022-10-11T03:15:21.512Z,99.90
2022-10-11T03:18:02.933Z,99.90
2022-10-11T03:20:43.210Z,99.90
2022-10-11T03:23:24.367Z,99.90
2022-10-11T03:26:05.813Z,99.90
2022-10-11T03:28:47.843Z,99.90
2022-10-11T03:31:28.537Z,99.90
2022-10-11T03:34:10.531Z,99.90
2022-10-11T03:36:51.270Z,99.90
2022-10-11T03:39:31.136Z,99.90
2022-10-11T03:42:12.666Z,99.90
2022-10-11T03:44:53.929Z,99.90
2022-10-11T03:47:34.081Z,99.90
2022-10-11T03:50:13.844Z,99.90
2022-10-11T03:52:54.945Z,99.90
2022-10-11T03:55:34.891Z,99.90
2022-10-11T03:58:16.161Z,99.90
2022-10-11T04:00:56.179Z,99.90
2022-10-11T04:03:37.528Z,99.90
2022-10-11T04:06:18.922Z,99.90
2022-10-11T04:08:57.367Z,99.90
2022-10-11T04:11:38.699Z,99.90
2022-10-11T04:14:19.959Z,99.90
2022-10-11T04:17:00.626Z,99.90
2022-10-11T04:19:41.162Z,99.90
2022-10-11T04:22:21.032Z,99.90
2022-10-11T04:25:00.827Z,99.90
2022-10-11T04:27:41.181Z,99.90
2022-10-11T04:30:22.305Z,99.90
2022-10-11T04:33:03.502Z,99.90
2022-10-11T04:35:43.322Z,99.90
2022-10-11T04:38:23.271Z,99.90
2022-10-11T04:41:12.485Z,99.90
2022-10-11T04:43:52.380Z,99.90
2022-10-11T04:46:33.863Z,99.90
2022-10-11T04:49:15.290Z,99.90
2022-10-11T04:51:56.740Z,99.90
2022-10-11T04:54:36.774Z,99.90
2022-10-11T04:57:18.029Z,99.90
2022-10-11T04:59:59.294Z,99.90
2022-10-11T05:02:39.204Z,99.90
2022-10-11T05:05:20.624Z,99.90
2022-10-11T05:08:02.001Z,99.90
2022-10-11T05:10:41.924Z,99.90
2022-10-11T05:13:23.332Z,99.90
2022-10-11T05:16:09.785Z,99.90
2022-10-11T05:18:50.931Z,99.90
2022-10-11T05:21:31.560Z,99.90
2022-10-11T05:24:12.139Z,99.90
2022-10-11T05:26:53.637Z,99.90
2022-10-11T05:29:33.982Z,99.90
2022-10-11T05:32:14.767Z,99.90
2022-10-11T05:34:54.622Z,99.90
2022-10-11T05:37:36.052Z,99.90
2022-10-11T05:40:17.646Z,99.90
2022-10-11T05:42:57.778Z,99.90
2022-10-11T05:45:40.195Z,99.90
2022-10-11T05:48:20.178Z,99.90
2022-10-11T05:51:03.746Z,99.90
2022-10-11T05:53:44.934Z,99.90
2022-10-11T05:56:27.372Z,99.90
2022-10-11T05:59:06.853Z,99.90
2022-10-11T06:01:46.055Z,99.90
2022-10-11T06:04:27.070Z,99.90
2022-10-11T06:07:07.445Z,99.90
2022-10-11T06:09:48.368Z,99.90
2022-10-11T06:12:30.226Z,99.90
2022-10-11T06:15:11.282Z,99.90
2022-10-11T06:18:09.221Z,99.90
2022-10-11T06:21:07.636Z,99.90
2022-10-11T06:23:49.665Z,99.90
2022-10-11T06:26:49.918Z,99.90
2022-10-11T06:29:49.030Z,99.90
2022-10-11T06:33:04.802Z,99.90
2022-10-11T06:35:43.787Z,99.90
2022-10-11T06:38:23.714Z,99.90
2022-10-11T06:41:29.351Z,99.90
2022-10-11T06:44:23.938Z,99.90
2022-10-11T06:47:18.185Z,99.90
2022-10-11T06:50:40.675Z,99.90
2022-10-11T06:53:31.822Z,99.90
2022-10-11T06:56:27.678Z,99.90
2022-10-11T06:59:07.474Z,99.90
2022-10-11T07:01:47.012Z,99.90
2022-10-11T07:04:40.413Z,99.90
2022-10-11T07:07:38.519Z,99.90
2022-10-11T07:10:18.671Z,99.90
2022-10-11T07:13:17.094Z,99.90
2022-10-11T07:16:13.881Z,99.90
2022-10-11T07:19:08.532Z,99.90
2022-10-11T07:22:05.939Z,99.90
2022-10-11T07:25:02.911Z,99.90
2022-10-11T07:28:06.426Z,99.90
2022-10-11T07:31:08.589Z,99.90
2022-10-11T07:34:44.793Z,99.90
2022-10-11T07:37:51.868Z,99.90
2022-10-11T07:41:14.600Z,99.90
2022-10-11T07:44:11.715Z,99.90
2022-10-11T07:47:11.440Z,99.90
2022-10-11T07:50:12.372Z,99.90
2022-10-11T07:53:22.068Z,99.90
2022-10-11T07:56:27.569Z,99.90
2022-10-11T07:59:42.670Z,99.90
2022-10-11T08:02:39.057Z,99.90
2022-10-11T08:05:18.734Z,99.90
2022-10-11T08:08:13.493Z,99.90
2022-10-11T08:11:21.294Z,99.90
2022-10-11T08:14:28.056Z,99.90
2022-10-11T08:17:26.591Z,99.90
2022-10-11T08:20:06.117Z,99.90
2022-10-11T08:23:20.048Z,99.90
2022-10-11T08:26:14.064Z,99.90
2022-10-11T08:29:11.465Z,99.90
2022-10-11T08:32:05.665Z,99.90
2022-10-11T08:35:03.199Z,99.90
2022-10-11T08:37:41.860Z,99.90
2022-10-11T08:40:46.945Z,99.90
2022-10-11T08:43:57.085Z,99.90
2022-10-11T08:47:07.041Z,99.90
2022-10-11T08:50:06.713Z,99.90
2022-10-11T08:53:08.721Z,99.90
2022-10-11T08:55:52.286Z,99.90
2022-10-11T08:58:53.501Z,99.90
2022-10-11T09:01:57.530Z,99.90
2022-10-11T09:04:37.623Z,99.90
2022-10-11T09:07:27.077Z,99.90
2022-10-11T09:10:35.358Z,99.90
2022-10-11T09:13:19.739Z,99.90
2022-10-11T09:15:56.763Z,99.90
2022-10-11T09:18:42.672Z,99.90
2022-10-11T09:21:20.759Z,99.90
2022-10-11T09:24:07.308Z,99.90
2022-10-11T09:26:41.933Z,99.90
2022-10-11T09:29:19.780Z,99.90
2022-10-11T09:31:50.124Z,99.90
2022-10-11T09:34:19.149Z,99.90
2022-10-11T09:36:56.271Z,99.90
2022-10-11T09:39:31.180Z,99.90
2022-10-11T09:42:03.027Z,99.90
2022-10-11T09:44:36.659Z,99.90
2022-10-11T09:47:06.280Z,99.90
2022-10-11T09:49:38.230Z,99.90
2022-10-11T09:52:13.224Z,99.90
2022-10-11T09:54:43.987Z,99.90
2022-10-11T09:57:24.587Z,99.90
2022-10-11T10:00:02.475Z,99.90
2022-10-11T10:02:43.928Z,99.90
2022-10-11T10:05:21.805Z,99.90
2022-10-11T10:08:08.024Z,99.90
2022-10-11T10:10:42.419Z,99.90
2022-10-11T10:13:22.699Z,99.90
2022-10-11T10:15:53.504Z,99.90
2022-10-11T10:18:24.810Z,99.90
2022-10-11T10:20:56.134Z,99.90
2022-10-11T10:23:27.670Z,99.90
2022-10-11T10:26:12.308Z,99.90
2022-10-11T10:28:56.768Z,99.90
2022-10-11T10:31:29.889Z,99.90
2022-10-11T10:33:58.805Z,99.90
2022-10-11T10:36:32.900Z,90.70
2022-10-11T10:39:07.565Z,99.90
2022-10-11T10:41:35.983Z,99.90
2022-10-11T10:44:06.159Z,99.90
2022-10-11T10:46:54.818Z,98.10
2022-10-11T10:49:53.574Z,83.00
2022-10-11T10:52:43.410Z,14.50
2022-10-11T10:55:22.523Z,1.00
2022-10-11T10:58:05.086Z,1.00
2022-10-11T11:00:42.367Z,1.00
2022-10-11T11:03:17.246Z,1.00
2022-10-11T11:05:52.518Z,1.00
2022-10-11T11:08:36.777Z,1.00
2022-10-11T11:11:11.848Z,1.00
2022-10-11T11:13:46.899Z,1.00
2022-10-11T11:16:24.977Z,1.00
2022-10-11T11:18:58.415Z,1.00
2022-10-11T11:21:41.191Z,1.00
2022-10-11T11:24:19.413Z,1.00
2022-10-11T11:26:53.554Z,1.00
2022-10-11T11:29:38.442Z,1.00
2022-10-11T11:32:17.651Z,1.00
2022-10-11T11:34:50.862Z,1.00
2022-10-11T11:37:26.093Z,1.00
2022-10-11T11:39:58.106Z,1.00
2022-10-11T11:42:31.975Z,1.00
2022-10-11T11:45:04.919Z,1.00
2022-10-11T11:47:38.039Z,1.00
2022-10-11T11:50:22.331Z,1.00
2022-10-11T11:52:55.096Z,99.90
2022-10-11T11:55:30.865Z,99.90
2022-10-11T11:58:09.309Z,99.90
2022-10-11T12:00:49.683Z,99.90
2022-10-11T12:03:23.974Z,99.90
2022-10-11T12:06:26.769Z,49.80
2022-10-11T12:09:06.212Z,99.90
2022-10-11T12:11:45.528Z,97.00
2022-10-11T12:14:29.508Z,24.00
2022-10-11T12:17:22.669Z,65.60
2022-10-11T12:20:14.597Z,1.00
2022-10-11T12:22:58.064Z,1.00
2022-10-11T12:25:44.976Z,99.90
2022-10-11T12:28:50.437Z,99.90
2022-10-11T12:31:24.772Z,99.90
2022-10-11T12:34:09.340Z,99.90
2022-10-11T12:36:41.612Z,1.30
2022-10-11T12:39:43.631Z,99.90
2022-10-11T12:42:26.352Z,99.90
2022-10-11T12:45:30.902Z,99.90
2022-10-11T12:48:40.019Z,99.90
2022-10-11T12:51:33.716Z,99.90
2022-10-11T12:54:27.357Z,99.90
2022-10-11T12:57:13.449Z,99.90
2022-10-11T12:59:44.853Z,99.90
2022-10-11T13:02:28.741Z,99.90
2022-10-11T13:05:08.015Z,99.90
2022-10-11T13:07:37.049Z,99.90
2022-10-11T13:10:07.437Z,99.90
2022-10-11T13:12:41.287Z,99.90
2022-10-11T13:15:15.488Z,99.90
2022-10-11T13:17:44.242Z,99.90
2022-10-11T13:20:19.194Z,99.90
2022-10-11T13:22:49.628Z,99.90
2022-10-11T13:25:20.809Z,99.90
2022-10-11T13:27:50.688Z,99.90
2022-10-11T13:30:21.688Z,99.90
2022-10-11T13:32:49.846Z,99.90
2022-10-11T13:35:24.687Z,99.90
2022-10-11T13:37:53.256Z,99.90
2022-10-11T13:40:23.589Z,99.90
2022-10-11T13:42:53.344Z,99.90
2022-10-11T13:45:23.556Z,99.90
2022-10-11T13:47:53.543Z,99.90
2022-10-11T13:50:30.193Z,99.90
2022-10-11T13:53:00.419Z,99.90
2022-10-11T13:55:33.526Z,99.90
2022-10-11T13:58:04.545Z,99.90
2022-10-11T14:00:35.080Z,99.90
2022-10-11T14:03:08.576Z,99.90
2022-10-11T14:05:39.606Z,99.90
2022-10-11T14:08:20.070Z,1.00
2022-10-11T14:10:55.633Z,99.90
2022-10-11T14:13:29.978Z,99.90
2022-10-11T14:16:07.562Z,1.60
2022-10-11T14:18:46.773Z,1.00
2022-10-11T14:21:36.122Z,1.00
2022-10-11T14:24:06.430Z,1.00
2022-10-11T14:26:38.142Z,91.50
2022-10-11T14:29:09.440Z,99.90
2022-10-11T14:31:41.666Z,68.30
2022-10-11T14:34:16.614Z,99.90
2022-10-11T14:36:44.751Z,99.90
2022-10-11T14:39:16.190Z,99.90
2022-10-11T14:41:45.815Z,99.90
2022-10-11T14:44:14.562Z,99.90
2022-10-11T14:46:42.695Z,99.90
2022-10-11T14:49:14.586Z,99.90
2022-10-11T14:51:43.797Z,99.90
2022-10-11T14:54:12.710Z,99.90
2022-10-11T14:56:41.016Z,99.90
2022-10-11T14:59:13.637Z,99.90
2022-10-11T15:01:41.818Z,99.90
2022-10-11T15:04:09.950Z,99.90
2022-10-11T15:06:40.517Z,1.00
2022-10-11T15:09:09.093Z,1.00
2022-10-11T15:11:38.689Z,1.00
2022-10-11T15:14:07.426Z,1.00
2022-10-11T15:16:37.108Z,1.00
2022-10-11T15:19:05.230Z,1.00
2022-10-11T15:21:35.236Z,1.00
2022-10-11T15:24:03.416Z,1.00
2022-10-11T15:26:33.763Z,1.00
2022-10-11T15:29:01.899Z,1.00
2022-10-11T15:31:30.145Z,1.00
2022-10-11T15:34:01.733Z,1.00
2022-10-11T15:36:30.172Z,1.00
2022-10-11T15:38:58.397Z,1.00
2022-10-11T15:41:26.467Z,1.00
2022-10-11T15:43:54.592Z,1.00
2022-10-11T15:46:23.544Z,1.00
2022-10-11T15:48:52.646Z,1.00
2022-10-11T15:51:22.113Z,99.90
2022-10-11T15:53:50.491Z,1.00
2022-10-11T15:56:19.925Z,99.90
2022-10-11T15:58:48.060Z,1.00
2022-10-11T16:01:17.752Z,1.00
2022-10-11T16:03:46.760Z,1.00
2022-10-11T16:06:15.392Z,27.30
2022-10-11T16:08:44.846Z,1.00
2022-10-11T16:11:13.563Z,1.00
2022-10-11T16:13:41.971Z,1.00
2022-10-11T16:16:11.980Z,1.00
2022-10-11T16:18:40.058Z,1.00
2022-10-11T16:21:10.493Z,1.00
2022-10-11T16:23:39.524Z,1.00
2022-10-11T16:26:12.237Z,5.50
2022-10-11T16:28:41.849Z,40.20
2022-10-11T16:31:11.635Z,42.80
2022-10-11T16:33:45.527Z,66.60
2022-10-11T16:36:35.891Z,96.90
2022-10-11T16:39:07.410Z,99.90
2022-10-11T16:41:36.990Z,99.90
2022-10-11T16:44:05.985Z,99.90
2022-10-11T16:46:34.751Z,99.90
2022-10-11T16:49:03.060Z,99.90
2022-10-11T16:51:31.293Z,99.90
2022-10-11T16:53:59.316Z,99.90
2022-10-11T16:56:27.548Z,99.90
2022-10-11T16:58:57.022Z,99.90
2022-10-11T17:01:25.758Z,99.90
2022-10-11T17:03:54.068Z,99.90
2022-10-11T17:06:22.071Z,99.90
2022-10-11T17:08:50.354Z,99.90
2022-10-11T17:11:18.897Z,99.90
2022-10-11T17:13:47.493Z,99.90
2022-10-11T17:16:18.172Z,99.90
2022-10-11T17:18:46.391Z,99.90
2022-10-11T17:21:15.982Z,99.90
2022-10-11T17:23:44.040Z,99.90
2022-10-11T17:26:15.606Z,99.90
2022-10-11T17:28:43.870Z,99.90
2022-10-11T17:31:12.050Z,99.90
2022-10-11T17:33:41.426Z,99.90
2022-10-11T17:36:18.294Z,99.90
2022-10-11T17:38:46.590Z,99.90
2022-10-11T17:41:14.778Z,99.90
2022-10-11T17:43:42.849Z,99.90
2022-10-11T17:46:13.123Z,99.90
2022-10-11T17:48:42.863Z,99.90
2022-10-11T17:51:12.648Z,99.90
2022-10-11T17:53:41.154Z,99.90
2022-10-11T17:56:10.997Z,99.90
2022-10-11T17:58:39.524Z,99.90
2022-10-11T18:01:11.703Z,99.90
2022-10-11T18:03:42.160Z,99.90
2022-10-11T18:06:13.000Z,99.90
2022-10-11T18:08:41.654Z,99.90
2022-10-11T18:11:15.017Z,99.90
2022-10-11T18:13:46.239Z,99.90
2022-10-11T18:16:15.092Z,99.90
2022-10-11T18:18:45.141Z,99.90
2022-10-11T18:21:13.610Z,99.90
2022-10-11T18:23:41.675Z,99.90
2022-10-11T18:26:11.352Z,99.90
2022-10-11T18:28:40.616Z,99.90
2022-10-11T18:31:12.896Z,99.90
2022-10-11T18:33:41.950Z,99.90
2022-10-11T18:36:13.430Z,99.90
2022-10-11T18:38:46.891Z,99.90
2022-10-11T18:41:17.463Z,99.90
2022-10-11T18:43:49.775Z,99.90
2022-10-11T18:46:18.521Z,99.90
2022-10-11T18:48:48.609Z,99.90
2022-10-11T18:51:20.363Z,99.90
2022-10-11T18:53:49.121Z,99.90
2022-10-11T18:56:20.496Z,99.90
2022-10-11T18:58:49.477Z,99.90
2022-10-11T19:01:20.416Z,99.90
2022-10-11T19:03:52.324Z,99.90
2022-10-11T19:06:23.965Z,99.90
2022-10-11T19:08:54.142Z,99.90
2022-10-11T19:11:25.197Z,99.90
2022-10-11T19:13:57.216Z,99.90
2022-10-11T19:16:26.745Z,99.90
2022-10-11T19:18:54.965Z,99.90
2022-10-11T19:21:24.555Z,99.90
2022-10-11T19:23:52.990Z,99.90
2022-10-11T19:26:22.989Z,99.90
2022-10-11T19:28:56.397Z,99.90
2022-10-11T19:31:24.941Z,99.90
2022-10-11T19:33:53.262Z,99.90
2022-10-11T19:36:21.523Z,99.90
2022-10-11T19:38:52.015Z,99.90
2022-10-11T19:41:20.932Z,99.90
2022-10-11T19:43:49.002Z,99.90
2022-10-11T19:46:37.943Z,99.90
2022-10-11T19:49:08.891Z,99.90
2022-10-11T19:51:38.197Z,99.90
2022-10-11T19:54:09.108Z,99.90
2022-10-11T19:56:37.529Z,99.90
2022-10-11T19:59:07.244Z,99.90
2022-10-11T20:01:36.917Z,99.90
2022-10-11T20:04:07.369Z,99.90
2022-10-11T20:06:38.726Z,99.90
2022-10-11T20:09:29.503Z,99.90
2022-10-11T20:11:57.695Z,99.90
2022-10-11T20:14:26.743Z,99.90
2022-10-11T20:16:54.875Z,99.90
2022-10-11T20:19:29.297Z,99.90
2022-10-11T20:21:58.838Z,99.90
2022-10-11T20:24:32.523Z,99.90
2022-10-11T20:27:01.673Z,99.90
2022-10-11T20:29:29.695Z,99.90
2022-10-11T20:31:58.844Z,99.90
2022-10-11T20:34:28.129Z,99.90
2022-10-11T20:36:56.185Z,99.90
2022-10-11T20:39:24.673Z,99.90
2022-10-11T20:41:54.116Z,99.90
2022-10-11T20:44:22.183Z,99.90
2022-10-11T20:46:50.257Z,99.90
2022-10-11T20:49:19.759Z,99.90
2022-10-11T20:51:47.785Z,99.90
2022-10-11T20:54:16.153Z,99.90
2022-10-11T20:56:44.277Z,99.90
2022-10-11T20:59:13.863Z,99.90
2022-10-11T21:01:43.189Z,99.90
2022-10-11T21:04:18.440Z,99.90
2022-10-11T21:06:47.253Z,99.90
2022-10-11T21:09:16.826Z,99.90
2022-10-11T21:11:45.628Z,99.90
2022-10-11T21:14:15.104Z,99.90
2022-10-11T21:16:43.181Z,99.90
2022-10-11T21:19:15.918Z,99.90
2022-10-11T21:21:50.979Z,99.90
2022-10-11T21:24:21.868Z,99.90
2022-10-11T21:26:49.906Z,99.90
2022-10-11T21:29:19.532Z,99.90
2022-10-11T21:31:47.749Z,99.90
2022-10-11T21:34:15.887Z,99.90
2022-10-11T21:36:44.222Z,99.90
2022-10-11T21:39:12.321Z,99.90
2022-10-11T21:41:42.053Z,99.90
2022-10-11T21:44:10.185Z,99.90
2022-10-11T21:47:05.575Z,99.90
2022-10-11T21:49:27.594Z,99.90
2022-10-11T21:51:55.647Z,99.90
2022-10-11T21:54:23.730Z,99.90
2022-10-11T21:56:51.781Z,99.90
2022-10-11T21:59:19.932Z,99.90
2022-10-11T22:01:49.466Z,99.90
2022-10-11T22:04:17.637Z,99.90
2022-10-11T22:06:45.650Z,99.90
2022-10-11T22:09:13.730Z,99.90
2022-10-11T22:11:41.763Z,99.90
2022-10-11T22:14:10.238Z,99.90
2022-10-11T22:16:38.296Z,99.90
2022-10-11T22:19:07.695Z,99.90
2022-10-11T22:21:35.753Z,99.90
2022-10-11T22:24:04.900Z,99.90
2022-10-11T22:26:35.934Z,99.90
2022-10-11T22:29:04.015Z,99.90
2022-10-11T22:31:32.290Z,99.90
2022-10-11T22:34:01.457Z,99.90
2022-10-11T22:36:31.451Z,99.90
2022-10-11T22:38:59.574Z,99.90
2022-10-11T22:41:27.725Z,99.90
2022-10-11T22:43:55.791Z,99.90
2022-10-11T22:46:23.792Z,99.90
2022-10-11T22:48:51.825Z,99.90
2022-10-11T22:51:19.920Z,99.90
2022-10-11T22:53:49.313Z,99.90
2022-10-11T22:56:17.349Z,99.90
2022-10-11T22:58:45.400Z,99.90
2022-10-11T23:01:15.842Z,99.90
2022-10-11T23:03:44.252Z,99.90
2022-10-11T23:06:12.349Z,99.90
2022-10-11T23:08:40.365Z,99.90
2022-10-11T23:11:11.013Z,99.90
2022-10-11T23:13:39.223Z,99.90
2022-10-11T23:16:08.086Z,99.90
2022-10-11T23:18:36.604Z,99.90
2022-10-11T23:21:05.535Z,99.90
2022-10-11T23:23:33.591Z,99.90
2022-10-11T23:26:03.566Z,99.90
2022-10-11T23:28:33.120Z,99.90
2022-10-11T23:31:01.428Z,99.90
2022-10-11T23:33:29.723Z,99.90
2022-10-11T23:35:57.747Z,99.90
2022-10-11T23:38:25.757Z,99.90
2022-10-11T23:40:53.804Z,99.90
2022-10-11T23:43:21.812Z,99.90
2022-10-11T23:45:51.235Z,99.90
2022-10-11T23:48:19.280Z,99.90
2022-10-11T23:50:47.297Z,99.90
2022-10-11T23:53:15.340Z,99.90
2022-10-11T23:55:43.602Z,99.90
2022-10-11T23:58:11.682Z,99.90
